sensor_id;sensor_type;location;lat;lon;timestamp;pressure;altitude;pressure_sealevel;temperature;humidity
74637;BME280;63141;54.616;39.754;2023-03-23T00:00:41;100176.44;;;22.42;33.94
74637;BME280;63141;54.616;39.754;2023-03-23T00:03:52;100185.25;;;22.42;33.98
74637;BME280;63141;54.616;39.754;2023-03-23T00:06:53;100182.59;;;22.42;33.96
74637;BME280;63141;54.616;39.754;2023-03-23T00:09:55;100192.38;;;22.42;34.05
74637;BME280;63141;54.616;39.754;2023-03-23T00:12:56;100188.84;;;22.41;34.05
74637;BME280;63141;54.616;39.754;2023-03-23T00:15:58;100193.31;;;22.41;33.87
74637;BME280;63141;54.616;39.754;2023-03-23T00:19:05;100187.06;;;22.42;34.02
74637;BME280;63141;54.616;39.754;2023-03-23T00:22:07;100194.16;;;22.41;33.99
74637;BME280;63141;54.616;39.754;2023-03-23T00:25:08;100185.34;;;22.41;33.91
74637;BME280;63141;54.616;39.754;2023-03-23T00:28:10;100190.56;;;22.42;33.87
74637;BME280;63141;54.616;39.754;2023-03-23T00:31:13;100185.34;;;22.41;33.74
74637;BME280;63141;54.616;39.754;2023-03-23T00:34:17;100201.28;;;22.41;33.71
74637;BME280;63141;54.616;39.754;2023-03-23T00:37:20;100188.84;;;22.41;33.86
74637;BME280;63141;54.616;39.754;2023-03-23T00:40:22;100190.66;;;22.41;33.87
74637;BME280;63141;54.616;39.754;2023-03-23T00:43:24;100189.75;;;22.40;33.83
74637;BME280;63141;54.616;39.754;2023-03-23T00:46:26;100195.97;;;22.41;33.68
74637;BME280;63141;54.616;39.754;2023-03-23T00:49:28;100192.41;;;22.40;33.60
74637;BME280;63141;54.616;39.754;2023-03-23T00:52:30;100192.41;;;22.40;33.59
74637;BME280;63141;54.616;39.754;2023-03-23T00:55:32;100191.50;;;22.41;33.67
74637;BME280;63141;54.616;39.754;2023-03-23T00:58:35;100195.06;;;22.40;33.55
74637;BME280;63141;54.616;39.754;2023-03-23T01:01:37;100184.47;;;22.40;33.73
74637;BME280;63141;54.616;39.754;2023-03-23T01:04:44;100184.47;;;22.40;33.56
74637;BME280;63141;54.616;39.754;2023-03-23T01:07:53;100184.47;;;22.40;33.45
74637;BME280;63141;54.616;39.754;2023-03-23T01:11:02;100186.19;;;22.41;33.48
74637;BME280;63141;54.616;39.754;2023-03-23T01:14:04;100187.13;;;22.40;33.55
74637;BME280;63141;54.616;39.754;2023-03-23T01:17:06;100184.47;;;22.40;33.46
74637;BME280;63141;54.616;39.754;2023-03-23T01:20:11;100179.16;;;22.40;33.38
74637;BME280;63141;54.616;39.754;2023-03-23T01:23:12;100185.41;;;22.39;33.47
74637;BME280;63141;54.616;39.754;2023-03-23T01:26:17;100179.16;;;22.40;33.52
74637;BME280;63141;54.616;39.754;2023-03-23T01:29:18;100172.13;;;22.39;33.36
74637;BME280;63141;54.616;39.754;2023-03-23T01:32:19;100173.84;;;22.40;33.27
74637;BME280;63141;54.616;39.754;2023-03-23T01:35:26;100168.53;;;22.40;33.34
74637;BME280;63141;54.616;39.754;2023-03-23T01:38:27;100165.88;;;22.40;33.35
74637;BME280;63141;54.616;39.754;2023-03-23T01:41:30;100166.78;;;22.41;33.24
74637;BME280;63141;54.616;39.754;2023-03-23T01:47:40;100179.16;;;22.40;33.14
74637;BME280;63141;54.616;39.754;2023-03-23T01:50:50;100173.84;;;22.40;33.28
74637;BME280;63141;54.616;39.754;2023-03-23T01:53:56;100173.84;;;22.40;33.15
74637;BME280;63141;54.616;39.754;2023-03-23T01:57:05;100161.47;;;22.41;33.24
74637;BME280;63141;54.616;39.754;2023-03-23T02:00:08;100169.34;;;22.42;33.44
74637;BME280;63141;54.616;39.754;2023-03-23T02:03:18;100164.13;;;22.41;33.22
74637;BME280;63141;54.616;39.754;2023-03-23T02:06:21;100164.13;;;22.41;33.14
74637;BME280;63141;54.616;39.754;2023-03-23T02:09:58;100159.66;;;22.41;33.25
74637;BME280;63141;54.616;39.754;2023-03-23T02:13:03;100159.66;;;22.41;33.19
74637;BME280;63141;54.616;39.754;2023-03-23T02:20:01;100164.97;;;22.41;33.06
74637;BME280;63141;54.616;39.754;2023-03-23T02:30:06;100164.97;;;22.41;33.15
74637;BME280;63141;54.616;39.754;2023-03-23T02:36:38;100152.63;;;22.40;33.06
74637;BME280;63141;54.616;39.754;2023-03-23T02:39:44;100154.34;;;22.41;33.07
74637;BME280;63141;54.616;39.754;2023-03-23T02:42:51;100150.84;;;22.41;32.92
74637;BME280;63141;54.616;39.754;2023-03-23T02:45:55;100157.91;;;22.40;33.15
74637;BME280;63141;54.616;39.754;2023-03-23T02:48:59;100147.31;;;22.40;33.00
74637;BME280;63141;54.616;39.754;2023-03-23T02:52:12;100151.69;;;22.41;32.90
74637;BME280;63141;54.616;39.754;2023-03-23T02:55:19;100155.25;;;22.40;32.91
74637;BME280;63141;54.616;39.754;2023-03-23T02:58:24;100148.19;;;22.41;32.84
74637;BME280;63141;54.616;39.754;2023-03-23T03:04:38;100151.69;;;22.41;32.98
74637;BME280;63141;54.616;39.754;2023-03-23T03:11:06;100149.06;;;22.41;32.93
74637;BME280;63141;54.616;39.754;2023-03-23T03:14:15;100138.44;;;22.41;32.87
74637;BME280;63141;54.616;39.754;2023-03-23T03:17:26;100133.13;;;22.41;32.80
74637;BME280;63141;54.616;39.754;2023-03-23T03:20:31;100139.28;;;22.42;32.96
74637;BME280;63141;54.616;39.754;2023-03-23T03:23:34;100132.28;;;22.41;32.86
74637;BME280;63141;54.616;39.754;2023-03-23T03:26:41;100122.50;;;22.41;32.92
74637;BME280;63141;54.616;39.754;2023-03-23T03:29:59;100116.25;;;22.42;32.78
74637;BME280;63141;54.616;39.754;2023-03-23T03:33:02;100120.66;;;22.43;32.86
74637;BME280;63141;54.616;39.754;2023-03-23T03:36:05;100117.19;;;22.41;32.78
74637;BME280;63141;54.616;39.754;2023-03-23T03:39:12;100119.88;;;22.41;32.85
74637;BME280;63141;54.616;39.754;2023-03-23T03:42:17;100120.78;;;22.40;32.80
74637;BME280;63141;54.616;39.754;2023-03-23T03:45:19;100126.97;;;22.41;32.94
74637;BME280;63141;54.616;39.754;2023-03-23T03:48:21;100122.50;;;22.41;32.92
74637;BME280;63141;54.616;39.754;2023-03-23T03:51:23;100126.97;;;22.41;32.91
74637;BME280;63141;54.616;39.754;2023-03-23T03:54:26;100119.91;;;22.40;33.05
74637;BME280;63141;54.616;39.754;2023-03-23T03:57:28;100118.13;;;22.40;32.84
74637;BME280;63141;54.616;39.754;2023-03-23T04:00:32;100115.47;;;22.40;32.88
74637;BME280;63141;54.616;39.754;2023-03-23T04:03:39;100125.16;;;22.41;33.21
74637;BME280;63141;54.616;39.754;2023-03-23T04:06:56;100121.56;;;22.42;32.97
74637;BME280;63141;54.616;39.754;2023-03-23T04:09:58;100118.06;;;22.42;33.08
74637;BME280;63141;54.616;39.754;2023-03-23T04:13:00;100122.50;;;22.41;33.07
74637;BME280;63141;54.616;39.754;2023-03-23T04:16:24;100118.91;;;22.42;33.08
74637;BME280;63141;54.616;39.754;2023-03-23T04:19:28;100120.66;;;22.43;33.10
74637;BME280;63141;54.616;39.754;2023-03-23T04:22:34;100119.81;;;22.43;33.13
74637;BME280;63141;54.616;39.754;2023-03-23T04:25:36;100132.13;;;22.44;33.11
74637;BME280;63141;54.616;39.754;2023-03-23T04:28:40;100127.69;;;22.44;33.02
74637;BME280;63141;54.616;39.754;2023-03-23T04:32:00;100128.53;;;22.45;33.26
74637;BME280;63141;54.616;39.754;2023-03-23T04:35:18;100132.94;;;22.46;33.32
74637;BME280;63141;54.616;39.754;2023-03-23T04:38:25;100128.53;;;22.45;33.23
74637;BME280;63141;54.616;39.754;2023-03-23T04:41:33;100131.13;;;22.46;33.32
74637;BME280;63141;54.616;39.754;2023-03-23T04:44:54;100127.56;;;22.47;33.19
74637;BME280;63141;54.616;39.754;2023-03-23T04:48:04;100122.28;;;22.47;33.28
74637;BME280;63141;54.616;39.754;2023-03-23T04:51:20;100122.28;;;22.47;33.48
74637;BME280;63141;54.616;39.754;2023-03-23T04:54:24;100117.81;;;22.48;33.45
74637;BME280;63141;54.616;39.754;2023-03-23T04:57:30;100120.38;;;22.49;33.20
74637;BME280;63141;54.616;39.754;2023-03-23T05:01:11;100120.38;;;22.49;33.41
74637;BME280;63141;54.616;39.754;2023-03-23T05:04:25;100120.38;;;22.49;33.47
74637;BME280;63141;54.616;39.754;2023-03-23T05:07:38;100115.97;;;22.50;33.40
74637;BME280;63141;54.616;39.754;2023-03-23T05:10:39;100120.38;;;22.49;33.48
74637;BME280;63141;54.616;39.754;2023-03-23T05:13:46;100116.81;;;22.50;33.48
74637;BME280;63141;54.616;39.754;2023-03-23T05:16:47;100113.22;;;22.51;33.55
74637;BME280;63141;54.616;39.754;2023-03-23T05:19:52;100113.22;;;22.51;33.60
74637;BME280;63141;54.616;39.754;2023-03-23T05:23:26;100105.25;;;22.51;33.78
74637;BME280;63141;54.616;39.754;2023-03-23T05:26:35;100102.56;;;22.53;33.60
74637;BME280;63141;54.616;39.754;2023-03-23T05:29:48;100102.56;;;22.53;33.64
74637;BME280;63141;54.616;39.754;2023-03-23T05:32:50;100111.31;;;22.55;33.55
74637;BME280;63141;54.616;39.754;2023-03-23T05:36:11;100116.63;;;22.55;33.71
74637;BME280;63141;54.616;39.754;2023-03-23T05:39:40;100102.50;;;22.54;33.73
74637;BME280;63141;54.616;39.754;2023-03-23T05:43:05;100100.66;;;22.56;33.71
74637;BME280;63141;54.616;39.754;2023-03-23T05:46:17;100096.19;;;22.57;33.72
74637;BME280;63141;54.616;39.754;2023-03-23T05:49:20;100099.72;;;22.57;33.83
74637;BME280;63141;54.616;39.754;2023-03-23T05:52:23;100098.75;;;22.58;33.80
74637;BME280;63141;54.616;39.754;2023-03-23T05:55:28;100098.75;;;22.58;33.78
74637;BME280;63141;54.616;39.754;2023-03-23T05:58:40;100103.97;;;22.62;33.99
74637;BME280;63141;54.616;39.754;2023-03-23T06:01:41;100101.25;;;22.63;33.95
74637;BME280;63141;54.616;39.754;2023-03-23T06:04:48;100103.81;;;22.65;33.99
74637;BME280;63141;54.616;39.754;2023-03-23T06:07:59;100102.81;;;22.67;33.90
74637;BME280;63141;54.616;39.754;2023-03-23T06:11:01;100099.25;;;22.68;33.94
74637;BME280;63141;54.616;39.754;2023-03-23T06:14:05;100101.81;;;22.70;33.90
74637;BME280;63141;54.616;39.754;2023-03-23T06:17:06;100101.81;;;22.70;33.88
74637;BME280;63141;54.616;39.754;2023-03-23T06:20:10;100103.56;;;22.71;33.92
74637;BME280;63141;54.616;39.754;2023-03-23T06:23:14;100090.28;;;22.71;33.83
74637;BME280;63141;54.616;39.754;2023-03-23T06:26:18;100094.66;;;22.72;33.95
74637;BME280;63141;54.616;39.754;2023-03-23T06:29:24;100092.91;;;22.72;33.84
74637;BME280;63141;54.616;39.754;2023-03-23T06:32:30;100091.09;;;22.73;33.95
74637;BME280;63141;54.616;39.754;2023-03-23T06:35:33;100089.28;;;22.73;33.92
74637;BME280;63141;54.616;39.754;2023-03-23T06:38:57;100093.66;;;22.74;34.01
74637;BME280;63141;54.616;39.754;2023-03-23T06:42:11;100088.28;;;22.76;33.98
74637;BME280;63141;54.616;39.754;2023-03-23T06:45:17;100093.59;;;22.76;33.96
74637;BME280;63141;54.616;39.754;2023-03-23T06:48:25;100084.72;;;22.77;33.99
74637;BME280;63141;54.616;39.754;2023-03-23T06:51:26;100089.09;;;22.78;33.91
74637;BME280;63141;54.616;39.754;2023-03-23T06:54:30;100096.13;;;22.79;33.98
74637;BME280;63141;54.616;39.754;2023-03-23T06:57:34;100099.66;;;22.79;34.01
74637;BME280;63141;54.616;39.754;2023-03-23T07:00:35;100096.00;;;22.82;33.98
74637;BME280;63141;54.616;39.754;2023-03-23T07:03:44;100090.69;;;22.82;34.08
74637;BME280;63141;54.616;39.754;2023-03-23T07:06:49;100090.69;;;22.82;33.85
74637;BME280;63141;54.616;39.754;2023-03-23T07:09:51;100086.25;;;22.83;33.96
74637;BME280;63141;54.616;39.754;2023-03-23T07:12:56;100085.38;;;22.82;34.33
74637;BME280;63141;54.616;39.754;2023-03-23T07:16:00;100086.25;;;22.83;34.01
74637;BME280;63141;54.616;39.754;2023-03-23T07:19:03;100092.41;;;22.83;34.28
74637;BME280;63141;54.616;39.754;2023-03-23T07:22:06;100089.75;;;22.83;34.16
74637;BME280;63141;54.616;39.754;2023-03-23T07:25:08;100083.53;;;22.84;33.96
74637;BME280;63141;54.616;39.754;2023-03-23T07:28:26;100091.50;;;22.84;34.00
74637;BME280;63141;54.616;39.754;2023-03-23T07:31:33;100081.78;;;22.83;34.14
74637;BME280;63141;54.616;39.754;2023-03-23T07:34:34;100087.09;;;22.83;34.20
74637;BME280;63141;54.616;39.754;2023-03-23T07:37:45;100093.25;;;22.84;34.07
74637;BME280;63141;54.616;39.754;2023-03-23T07:40:50;100087.09;;;22.83;34.09
74637;BME280;63141;54.616;39.754;2023-03-23T07:43:54;100078.22;;;22.84;34.19
74637;BME280;63141;54.616;39.754;2023-03-23T07:47:05;100078.22;;;22.84;34.13
74637;BME280;63141;54.616;39.754;2023-03-23T07:50:09;100078.22;;;22.84;34.06
74637;BME280;63141;54.616;39.754;2023-03-23T07:53:14;100086.25;;;22.83;34.03
74637;BME280;63141;54.616;39.754;2023-03-23T07:56:19;100089.75;;;22.83;34.02
74637;BME280;63141;54.616;39.754;2023-03-23T07:59:33;100083.63;;;22.81;33.91
74637;BME280;63141;54.616;39.754;2023-03-23T08:02:37;100093.34;;;22.82;34.05
74637;BME280;63141;54.616;39.754;2023-03-23T08:06:05;100085.50;;;22.79;33.73
74637;BME280;63141;54.616;39.754;2023-03-23T08:09:30;100083.78;;;22.78;34.15
74637;BME280;63141;54.616;39.754;2023-03-23T08:12:52;100081.13;;;22.78;34.09
74637;BME280;63141;54.616;39.754;2023-03-23T08:16:14;100076.75;;;22.77;34.14
74637;BME280;63141;54.616;39.754;2023-03-23T08:19:39;100085.63;;;22.76;34.16
74637;BME280;63141;54.616;39.754;2023-03-23T08:23:01;100093.59;;;22.76;34.11
74637;BME280;63141;54.616;39.754;2023-03-23T08:26:32;100084.78;;;22.75;34.11
74637;BME280;63141;54.616;39.754;2023-03-23T08:29:52;100077.72;;;22.74;34.20
74637;BME280;63141;54.616;39.754;2023-03-23T08:33:13;100075.06;;;22.74;34.11
74637;BME280;63141;54.616;39.754;2023-03-23T08:36:32;100071.56;;;22.74;34.09
74637;BME280;63141;54.616;39.754;2023-03-23T08:40:00;100068.06;;;22.73;34.07
74637;BME280;63141;54.616;39.754;2023-03-23T08:43:34;100068.00;;;22.75;34.10
74637;BME280;63141;54.616;39.754;2023-03-23T08:47:08;100057.38;;;22.75;33.99
74637;BME280;63141;54.616;39.754;2023-03-23T08:50:34;100055.63;;;22.74;34.04
74637;BME280;63141;54.616;39.754;2023-03-23T08:53:39;100050.31;;;22.74;33.94
74637;BME280;63141;54.616;39.754;2023-03-23T08:57:01;100044.09;;;22.75;33.79
74637;BME280;63141;54.616;39.754;2023-03-23T09:00:20;100052.06;;;22.75;33.78
74637;BME280;63141;54.616;39.754;2023-03-23T09:03:52;100042.31;;;22.75;33.72
74637;BME280;63141;54.616;39.754;2023-03-23T09:07:13;100032.53;;;22.76;33.65
74637;BME280;63141;54.616;39.754;2023-03-23T09:10:16;100036.94;;;22.77;33.42
74637;BME280;63141;54.616;39.754;2023-03-23T09:13:17;100028.97;;;22.77;33.71
74637;BME280;63141;54.616;39.754;2023-03-23T09:16:19;100026.22;;;22.78;33.77
74637;BME280;63141;54.616;39.754;2023-03-23T09:19:20;100024.44;;;22.79;33.73
74637;BME280;63141;54.616;39.754;2023-03-23T09:22:22;100024.38;;;22.80;33.76
74637;BME280;63141;54.616;39.754;2023-03-23T09:25:26;100024.38;;;22.80;33.48
74637;BME280;63141;54.616;39.754;2023-03-23T09:28:28;100021.66;;;22.82;33.70
74637;BME280;63141;54.616;39.754;2023-03-23T09:31:29;100011.03;;;22.82;33.77
74637;BME280;63141;54.616;39.754;2023-03-23T09:34:32;100011.03;;;22.82;33.81
74637;BME280;63141;54.616;39.754;2023-03-23T09:37:37;100001.25;;;22.83;33.64
74637;BME280;63141;54.616;39.754;2023-03-23T09:40:47;100007.44;;;22.83;33.69
74637;BME280;63141;54.616;39.754;2023-03-23T09:50:28;100001.63;;;22.54;32.60
74637;BME280;63141;54.616;39.754;2023-03-23T09:53:38;99992.44;;;22.21;32.76
74637;BME280;63141;54.616;39.754;2023-03-23T09:56:40;99995.53;;;22.10;32.80
74637;BME280;63141;54.616;39.754;2023-03-23T09:59:46;99986.97;;;22.03;32.55
74637;BME280;63141;54.616;39.754;2023-03-23T10:03:15;99973.72;;;22.03;32.47
74637;BME280;63141;54.616;39.754;2023-03-23T10:06:18;99974.59;;;22.04;32.30
74637;BME280;63141;54.616;39.754;2023-03-23T10:09:22;99963.00;;;22.06;32.40
74637;BME280;63141;54.616;39.754;2023-03-23T10:12:55;99972.66;;;22.07;32.25
74637;BME280;63141;54.616;39.754;2023-03-23T10:15:59;99977.78;;;22.12;32.32
74637;BME280;63141;54.616;39.754;2023-03-23T10:19:12;99961.91;;;22.10;32.11
74637;BME280;63141;54.616;39.754;2023-03-23T10:22:22;99953.97;;;22.10;32.28
74637;BME280;63141;54.616;39.754;2023-03-23T10:25:34;99946.94;;;22.09;32.03
74637;BME280;63141;54.616;39.754;2023-03-23T10:28:50;99942.88;;;22.01;32.24
74637;BME280;63141;54.616;39.754;2023-03-23T10:32:10;99940.31;;;21.99;32.09
74637;BME280;63141;54.616;39.754;2023-03-23T10:35:37;99931.28;;;22.03;32.16
74637;BME280;63141;54.616;39.754;2023-03-23T10:38:45;99917.13;;;22.04;31.94
74637;BME280;63141;54.616;39.754;2023-03-23T10:41:48;99919.81;;;22.03;32.16
74637;BME280;63141;54.616;39.754;2023-03-23T10:44:54;99918.31;;;21.97;32.04
74637;BME280;63141;54.616;39.754;2023-03-23T10:48:22;99922.66;;;21.98;32.15
74637;BME280;63141;54.616;39.754;2023-03-23T10:51:32;99918.31;;;21.97;32.22
74637;BME280;63141;54.616;39.754;2023-03-23T10:54:38;99913.06;;;21.95;32.02
74637;BME280;63141;54.616;39.754;2023-03-23T10:57:44;99916.66;;;21.94;32.00
74637;BME280;63141;54.616;39.754;2023-03-23T11:00:47;99921.06;;;21.94;31.98
74637;BME280;63141;54.616;39.754;2023-03-23T11:03:54;99907.91;;;21.92;31.99
74637;BME280;63141;54.616;39.754;2023-03-23T11:06:59;99906.25;;;21.90;32.01
74637;BME280;63141;54.616;39.754;2023-03-23T11:10:15;99902.72;;;21.89;32.14
74637;BME280;63141;54.616;39.754;2023-03-23T11:13:19;99900.81;;;21.93;32.07
74637;BME280;63141;54.616;39.754;2023-03-23T11:16:27;99895.63;;;21.90;32.18
74637;BME280;63141;54.616;39.754;2023-03-23T11:19:31;99899.25;;;21.87;32.25
74637;BME280;63141;54.616;39.754;2023-03-23T11:22:33;99896.69;;;21.86;32.25
74637;BME280;63141;54.616;39.754;2023-03-23T11:29:08;99898.16;;;21.93;32.13
74637;BME280;63141;54.616;39.754;2023-03-23T11:32:14;99889.13;;;21.97;32.13
74637;BME280;63141;54.616;39.754;2023-03-23T11:35:27;99892.66;;;21.98;32.32
74637;BME280;63141;54.616;39.754;2023-03-23T11:38:29;99881.19;;;21.97;32.15
74637;BME280;63141;54.616;39.754;2023-03-23T11:41:37;99886.34;;;22.00;32.34
74637;BME280;63141;54.616;39.754;2023-03-23T11:44:43;99886.94;;;22.07;32.24
74637;BME280;63141;54.616;39.754;2023-03-23T11:51:27;99893.28;;;22.25;32.12
74637;BME280;63141;54.616;39.754;2023-03-23T11:54:38;99892.13;;;22.30;32.03
74637;BME280;63141;54.616;39.754;2023-03-23T11:57:41;99886.59;;;22.35;32.08
74637;BME280;63141;54.616;39.754;2023-03-23T12:01:10;99876.63;;;22.40;32.17
74637;BME280;63141;54.616;39.754;2023-03-23T12:04:35;99875.66;;;22.43;32.34
74637;BME280;63141;54.616;39.754;2023-03-23T12:14:47;99870.78;;;22.52;32.48
74637;BME280;63141;54.616;39.754;2023-03-23T12:21:21;99867.34;;;22.50;32.40
74637;BME280;63141;54.616;39.754;2023-03-23T12:27:51;99857.78;;;22.46;32.61
74637;BME280;63141;54.616;39.754;2023-03-23T12:31:17;99857.84;;;22.45;32.38
74637;BME280;63141;54.616;39.754;2023-03-23T12:44:12;99857.16;;;22.41;32.74
74637;BME280;63141;54.616;39.754;2023-03-23T12:47:21;99858.06;;;22.40;32.85
74637;BME280;63141;54.616;39.754;2023-03-23T12:50:44;99850.09;;;22.40;32.92
74637;BME280;63141;54.616;39.754;2023-03-23T12:57:21;99852.00;;;22.38;32.87
74637;BME280;63141;54.616;39.754;2023-03-23T13:00:31;99852.00;;;22.38;32.92
74637;BME280;63141;54.616;39.754;2023-03-23T13:03:44;99851.09;;;22.37;32.98
74637;BME280;63141;54.616;39.754;2023-03-23T13:06:50;99844.94;;;22.37;32.85
74637;BME280;63141;54.616;39.754;2023-03-23T13:12:56;99846.81;;;22.35;32.97
74637;BME280;63141;54.616;39.754;2023-03-23T13:19:10;99841.50;;;22.35;32.99
74637;BME280;63141;54.616;39.754;2023-03-23T13:22:21;99841.66;;;22.32;33.09
74637;BME280;63141;54.616;39.754;2023-03-23T13:25:46;99838.25;;;22.28;32.95
74637;BME280;63141;54.616;39.754;2023-03-23T13:29:01;99827.84;;;22.24;33.05
74637;BME280;63141;54.616;39.754;2023-03-23T13:32:16;99836.75;;;22.23;33.14
74637;BME280;63141;54.616;39.754;2023-03-23T13:35:19;99830.78;;;22.17;33.05
74637;BME280;63141;54.616;39.754;2023-03-23T13:38:26;99834.41;;;22.15;33.12
74637;BME280;63141;54.616;39.754;2023-03-23T13:41:30;99828.38;;;22.11;33.13
74637;BME280;63141;54.616;39.754;2023-03-23T13:54:51;99818.34;;;21.99;33.25
74637;BME280;63141;54.616;39.754;2023-03-23T14:01:34;99817.66;;;21.94;33.28
74637;BME280;63141;54.616;39.754;2023-03-23T14:04:45;99818.66;;;21.91;33.34
74637;BME280;63141;54.616;39.754;2023-03-23T14:07:58;99812.50;;;21.91;33.39
74637;BME280;63141;54.616;39.754;2023-03-23T14:11:24;99812.50;;;21.91;33.41
74637;BME280;63141;54.616;39.754;2023-03-23T14:14:30;99808.13;;;21.90;33.44
74637;BME280;63141;54.616;39.754;2023-03-23T14:17:39;99810.00;;;21.88;33.33
74637;BME280;63141;54.616;39.754;2023-03-23T14:20:42;99816.00;;;21.91;33.25
74637;BME280;63141;54.616;39.754;2023-03-23T14:23:46;99808.84;;;21.93;33.48
74637;BME280;63141;54.616;39.754;2023-03-23T14:26:48;99807.00;;;21.95;33.52
74637;BME280;63141;54.616;39.754;2023-03-23T14:30:03;99805.13;;;21.98;33.56
74637;BME280;63141;54.616;39.754;2023-03-23T14:33:06;99813.03;;;21.99;33.42
74637;BME280;63141;54.616;39.754;2023-03-23T14:36:09;99809.38;;;22.02;33.59
74637;BME280;63141;54.616;39.754;2023-03-23T14:42:38;99818.13;;;22.04;33.64
74637;BME280;63141;54.616;39.754;2023-03-23T14:45:40;99812.75;;;22.05;33.68
74637;BME280;63141;54.616;39.754;2023-03-23T14:48:42;99812.69;;;22.07;33.82
74637;BME280;63141;54.616;39.754;2023-03-23T14:51:49;99802.03;;;22.08;33.63
74637;BME280;63141;54.616;39.754;2023-03-23T14:54:50;99805.59;;;22.07;33.68
74637;BME280;63141;54.616;39.754;2023-03-23T14:57:51;99813.47;;;22.09;33.60
74637;BME280;63141;54.616;39.754;2023-03-23T15:01:10;99809.03;;;22.09;33.69
74637;BME280;63141;54.616;39.754;2023-03-23T15:04:21;99812.47;;;22.11;33.63
74637;BME280;63141;54.616;39.754;2023-03-23T15:07:28;99808.97;;;22.11;33.47
74637;BME280;63141;54.616;39.754;2023-03-23T15:10:31;99812.47;;;22.11;33.63
74637;BME280;63141;54.616;39.754;2023-03-23T15:13:33;99805.31;;;22.13;34.32
74637;BME280;63141;54.616;39.754;2023-03-23T15:16:36;99807.88;;;22.15;34.44
74637;BME280;63141;54.616;39.754;2023-03-23T15:19:42;99802.78;;;22.10;34.58
74637;BME280;63141;54.616;39.754;2023-03-23T15:22:48;99804.00;;;22.03;34.76
74637;BME280;63141;54.616;39.754;2023-03-23T15:25:52;99808.69;;;21.96;34.76
74637;BME280;63141;54.616;39.754;2023-03-23T15:32:10;99812.84;;;21.83;34.83
74637;BME280;63141;54.616;39.754;2023-03-23T15:35:15;99806.94;;;21.77;34.99
74637;BME280;63141;54.616;39.754;2023-03-23T15:38:30;99807.16;;;21.72;34.80
74637;BME280;63141;54.616;39.754;2023-03-23T15:41:32;99808.34;;;21.65;35.07
74637;BME280;63141;54.616;39.754;2023-03-23T15:44:36;99804.97;;;21.61;35.10
74637;BME280;63141;54.616;39.754;2023-03-23T15:50:43;99814.09;;;21.54;35.15
74637;BME280;63141;54.616;39.754;2023-03-23T15:53:48;99807.16;;;21.51;35.23
74637;BME280;63141;54.616;39.754;2023-03-23T15:56:51;99808.19;;;21.47;35.42
74637;BME280;63141;54.616;39.754;2023-03-23T15:59:52;99806.53;;;21.45;35.62
74637;BME280;63141;54.616;39.754;2023-03-23T16:03:00;99806.41;;;21.48;36.42
74637;BME280;63141;54.616;39.754;2023-03-23T16:06:10;99804.91;;;21.63;37.35
74637;BME280;63141;54.616;39.754;2023-03-23T16:09:18;99800.06;;;21.72;37.90
74637;BME280;63141;54.616;39.754;2023-03-23T16:12:19;99802.25;;;21.83;37.81
74637;BME280;63141;54.616;39.754;2023-03-23T16:15:20;99802.69;;;21.93;38.63
74637;BME280;63141;54.616;39.754;2023-03-23T16:18:22;99800.53;;;22.01;39.04
74637;BME280;63141;54.616;39.754;2023-03-23T16:21:23;99801.13;;;22.08;39.34
74637;BME280;63141;54.616;39.754;2023-03-23T16:24:25;99805.31;;;22.13;39.70
74637;BME280;63141;54.616;39.754;2023-03-23T16:27:26;99807.75;;;22.18;39.95
74637;BME280;63141;54.616;39.754;2023-03-23T16:30:31;99805.78;;;22.23;40.14
74637;BME280;63141;54.616;39.754;2023-03-23T16:33:33;99806.50;;;22.27;40.36
74637;BME280;63141;54.616;39.754;2023-03-23T16:36:35;99795.75;;;22.30;40.42
74637;BME280;63141;54.616;39.754;2023-03-23T16:39:36;99811.53;;;22.33;40.70
74637;BME280;63141;54.616;39.754;2023-03-23T16:42:38;99803.44;;;22.36;40.89
74637;BME280;63141;54.616;39.754;2023-03-23T16:45:40;99803.28;;;22.39;41.07
74637;BME280;63141;54.616;39.754;2023-03-23T16:48:42;99800.63;;;22.39;41.26
74637;BME280;63141;54.616;39.754;2023-03-23T16:51:43;99804.09;;;22.41;41.21
74637;BME280;63141;54.616;39.754;2023-03-23T16:54:45;99800.47;;;22.42;41.56
74637;BME280;63141;54.616;39.754;2023-03-23T16:57:46;99789.75;;;22.45;41.44
74637;BME280;63141;54.616;39.754;2023-03-23T17:00:49;99791.44;;;22.46;41.63
74637;BME280;63141;54.616;39.754;2023-03-23T17:03:56;99793.19;;;22.47;41.49
74637;BME280;63141;54.616;39.754;2023-03-23T17:06:58;99791.28;;;22.49;41.49
74637;BME280;63141;54.616;39.754;2023-03-23T17:10:00;99787.72;;;22.50;41.63
74637;BME280;63141;54.616;39.754;2023-03-23T17:13:01;99784.13;;;22.51;41.74
74637;BME280;63141;54.616;39.754;2023-03-23T17:16:03;99784.91;;;22.53;41.75
74637;BME280;63141;54.616;39.754;2023-03-23T17:19:04;99779.56;;;22.55;41.93
74637;BME280;63141;54.616;39.754;2023-03-23T17:22:07;99783.00;;;22.57;41.79
74637;BME280;63141;54.616;39.754;2023-03-23T17:25:09;99777.69;;;22.57;42.05
74637;BME280;63141;54.616;39.754;2023-03-23T17:28:10;99776.69;;;22.59;42.08
74637;BME280;63141;54.616;39.754;2023-03-23T17:31:12;99773.06;;;22.61;42.20
74637;BME280;63141;54.616;39.754;2023-03-23T17:34:13;99774.81;;;22.62;42.12
74637;BME280;63141;54.616;39.754;2023-03-23T17:37:15;99773.88;;;22.63;41.76
74637;BME280;63141;54.616;39.754;2023-03-23T17:40:17;99776.53;;;22.63;41.84
74637;BME280;63141;54.616;39.754;2023-03-23T17:43:18;99771.22;;;22.63;41.77
74637;BME280;63141;54.616;39.754;2023-03-23T17:46:19;99765.84;;;22.64;41.74
74637;BME280;63141;54.616;39.754;2023-03-23T17:49:22;99757.81;;;22.66;41.65